createdAt,value
2022-10-12T00:01:07.923Z,100349.75
2022-10-12T00:03:37.505Z,100347.78
2022-10-12T00:06:07.673Z,100350.28
2022-10-12T00:08:38.739Z,100344.69
2022-10-12T00:11:08.043Z,100344.53
2022-10-12T00:13:36.222Z,100335.22
2022-10-12T00:16:04.658Z,100329.09
2022-10-12T00:18:32.861Z,100333.56
2022-10-12T00:21:07.881Z,100336.31
2022-10-12T00:23:37.087Z,100340.66
2022-10-12T00:26:06.542Z,100338.28
2022-10-12T00:28:38.079Z,100337.94
2022-10-12T00:31:09.286Z,100339.00
2022-10-12T00:33:38.660Z,100335.22
2022-10-12T00:36:16.178Z,100333.84
2022-10-12T00:38:44.812Z,100323.47
2022-10-12T00:41:13.754Z,100340.59
2022-10-12T00:43:43.864Z,100334.00
2022-10-12T00:46:15.633Z,100334.22
2022-10-12T00:48:44.378Z,100337.31
2022-10-12T00:51:14.363Z,100335.22
2022-10-12T00:53:44.800Z,100333.53
2022-10-12T00:56:16.534Z,100338.38
2022-10-12T00:58:44.776Z,100334.91
2022-10-12T01:01:12.929Z,100334.47
2022-10-12T01:03:41.302Z,100344.22
2022-10-12T01:06:09.372Z,100333.75
2022-10-12T01:08:39.446Z,100343.88
2022-10-12T01:11:07.662Z,100346.50
2022-10-12T01:13:35.712Z,100341.66
2022-10-12T01:16:08.793Z,100342.97
2022-10-12T01:18:43.180Z,100333.28
2022-10-12T01:21:16.694Z,100332.13
2022-10-12T01:24:06.403Z,100336.47
2022-10-12T01:27:13.243Z,100341.72
2022-10-12T01:30:01.680Z,100341.47
2022-10-12T01:32:32.930Z,100340.22
2022-10-12T01:35:04.177Z,100344.91
2022-10-12T01:37:39.638Z,100345.31
2022-10-12T01:40:11.827Z,100345.56
2022-10-12T01:42:41.810Z,100351.25
2022-10-12T01:45:13.085Z,100347.75
2022-10-12T01:47:42.786Z,100343.81
2022-10-12T01:50:13.519Z,100351.38
2022-10-12T01:52:46.997Z,100346.59
2022-10-12T01:55:30.510Z,100346.25
2022-10-12T01:58:14.947Z,100343.50
2022-10-12T02:00:49.248Z,100341.47
2022-10-12T02:03:21.654Z,100336.09
2022-10-12T02:05:52.097Z,100341.53
2022-10-12T02:08:24.359Z,100338.50
2022-10-12T02:10:56.515Z,100336.66
2022-10-12T02:13:26.536Z,100332.75
2022-10-12T02:15:56.268Z,100335.91
2022-10-12T02:18:25.727Z,100326.88
2022-10-12T02:20:55.422Z,100328.00
2022-10-12T02:23:25.021Z,100329.72
2022-10-12T02:25:54.599Z,100326.22
2022-10-12T02:28:24.754Z,100331.38
2022-10-12T02:30:58.893Z,100328.25
2022-10-12T02:33:30.073Z,100335.59
2022-10-12T02:36:00.246Z,100338.34
2022-10-12T02:38:31.845Z,100327.25
2022-10-12T02:41:02.505Z,100335.69
2022-10-12T02:43:36.091Z,100330.59
2022-10-12T02:46:06.426Z,100331.88
2022-10-12T02:48:35.506Z,100331.97
2022-10-12T02:51:04.838Z,100333.69
2022-10-12T02:53:32.931Z,100334.44
2022-10-12T02:56:03.814Z,100339.81
2022-10-12T02:58:31.881Z,100335.31
2022-10-12T03:01:00.159Z,100342.94
2022-10-12T03:03:29.834Z,100340.25
2022-10-12T03:05:57.947Z,100346.88
2022-10-12T03:08:26.010Z,100349.19
2022-10-12T03:10:54.123Z,100346.22
2022-10-12T03:13:22.175Z,100332.91
2022-10-12T03:15:50.232Z,100328.69
2022-10-12T03:18:19.094Z,100331.25
2022-10-12T03:20:50.452Z,100337.28
2022-10-12T03:23:18.469Z,100332.09
2022-10-12T03:25:46.561Z,100333.19
2022-10-12T03:28:14.690Z,100328.31
2022-10-12T03:30:43.696Z,100340.25
2022-10-12T03:33:11.765Z,100335.50
2022-10-12T03:35:39.831Z,100331.81
2022-10-12T03:38:09.219Z,100337.91
2022-10-12T03:40:37.272Z,100338.31
2022-10-12T03:43:05.295Z,100330.97
2022-10-12T03:45:33.481Z,100333.81
2022-10-12T03:48:04.933Z,100338.75
2022-10-12T03:50:34.947Z,100338.06
2022-10-12T03:53:03.249Z,100333.28
2022-10-12T03:55:32.895Z,100334.53
2022-10-12T03:58:01.027Z,100329.47
2022-10-12T04:00:29.259Z,100329.31
2022-10-12T04:02:57.295Z,100334.53
2022-10-12T04:05:25.357Z,100334.25
2022-10-12T04:07:53.470Z,100331.72
2022-10-12T04:10:21.568Z,100335.53
2022-10-12T04:12:50.984Z,100336.34
2022-10-12T04:15:19.591Z,100332.56
2022-10-12T04:17:47.803Z,100337.94
2022-10-12T04:20:15.879Z,100338.91
2022-10-12T04:22:43.944Z,100343.69
2022-10-12T04:25:12.818Z,100346.22
2022-10-12T04:27:41.236Z,100338.91
2022-10-12T04:30:12.703Z,100326.78
2022-10-12T04:32:40.781Z,100344.66
2022-10-12T04:35:09.203Z,100340.59
2022-10-12T04:37:37.519Z,100331.56
2022-10-12T04:40:06.755Z,100336.38
2022-10-12T04:42:34.804Z,100337.34
2022-10-12T04:45:02.879Z,100332.41
2022-10-12T04:47:32.344Z,100324.66
2022-10-12T04:50:00.408Z,100335.66
2022-10-12T04:52:28.778Z,100334.53
2022-10-12T04:54:56.794Z,100329.72
2022-10-12T04:57:24.938Z,100328.31
2022-10-12T04:59:52.972Z,100333.25
2022-10-12T05:02:21.043Z,100333.66
2022-10-12T05:04:50.454Z,100327.19
2022-10-12T05:07:18.685Z,100337.75
2022-10-12T05:09:46.715Z,100338.91
2022-10-12T05:12:14.874Z,100342.00
2022-10-12T05:14:44.290Z,100340.88
2022-10-12T05:17:12.696Z,100341.88
2022-10-12T05:19:40.721Z,100342.44
2022-10-12T05:22:10.138Z,100343.00
2022-10-12T05:24:38.381Z,100343.00
2022-10-12T05:27:06.460Z,100344.13
2022-10-12T05:29:34.560Z,100347.81
2022-10-12T05:32:02.649Z,100349.47
2022-10-12T05:34:30.801Z,100354.81
2022-10-12T05:36:59.358Z,100357.78
2022-10-12T05:39:28.881Z,100358.75
2022-10-12T05:41:56.943Z,100362.00
2022-10-12T05:44:24.980Z,100358.78
2022-10-12T05:46:53.173Z,100369.25
2022-10-12T05:49:21.264Z,100369.38
2022-10-12T05:51:49.384Z,100365.53
2022-10-12T05:54:17.605Z,100375.25
2022-10-12T05:56:47.124Z,100364.69
2022-10-12T05:59:15.304Z,100377.09
2022-10-12T06:01:43.489Z,100369.50
2022-10-12T06:04:13.006Z,100374.03
2022-10-12T06:06:41.309Z,100369.38
2022-10-12T06:09:09.486Z,100376.81
2022-10-12T06:11:37.534Z,100377.41
2022-10-12T06:14:07.097Z,100385.88
2022-10-12T06:16:35.183Z,100386.44
2022-10-12T06:19:03.529Z,100399.13
2022-10-12T06:21:33.960Z,100394.06
2022-10-12T06:24:02.577Z,100397.59
2022-10-12T06:26:30.774Z,100399.44
2022-10-12T06:29:00.759Z,100401.94
2022-10-12T06:31:30.579Z,100399.72
2022-10-12T06:33:58.806Z,100411.13
2022-10-12T06:36:27.159Z,100404.22
2022-10-12T06:38:55.300Z,100415.50
2022-10-12T06:41:25.809Z,100412.66
2022-10-12T06:43:53.894Z,100411.56
2022-10-12T06:46:22.045Z,100412.41
2022-10-12T06:48:51.546Z,100412.53
2022-10-12T06:51:19.621Z,100414.94
2022-10-12T06:53:47.675Z,100424.09
2022-10-12T06:56:15.786Z,100413.13
2022-10-12T06:58:43.892Z,100426.53
2022-10-12T07:01:12.039Z,100431.88
2022-10-12T07:03:40.197Z,100422.28
2022-10-12T07:06:12.179Z,100411.69
2022-10-12T07:08:41.210Z,100424.53
2022-10-12T07:11:11.117Z,100418.75
2022-10-12T07:13:39.448Z,100418.03
2022-10-12T07:16:08.144Z,100423.41
2022-10-12T07:18:36.615Z,100425.66
2022-10-12T07:21:04.972Z,100428.50
2022-10-12T07:23:35.361Z,100439.22
2022-10-12T07:26:03.395Z,100426.38
2022-10-12T07:28:31.547Z,100425.81
2022-10-12T07:31:03.205Z,100416.91
2022-10-12T07:33:35.192Z,100428.50
2022-10-12T07:36:13.871Z,100419.16
2022-10-12T07:38:45.880Z,100418.47
2022-10-12T07:41:14.592Z,100422.22
2022-10-12T07:43:43.182Z,100419.25
2022-10-12T07:46:11.586Z,100414.63
2022-10-12T07:48:45.684Z,100417.56
2022-10-12T07:51:18.359Z,100417.13
2022-10-12T07:53:48.013Z,100419.03
2022-10-12T07:56:16.302Z,100422.81
2022-10-12T07:58:44.857Z,100421.34
2022-10-12T08:01:13.032Z,100423.84
2022-10-12T08:03:41.208Z,100417.06
2022-10-12T08:06:10.661Z,100414.88
2022-10-12T08:08:38.970Z,100410.91
2022-10-12T08:11:08.883Z,100408.78
2022-10-12T08:13:37.825Z,100404.34
2022-10-12T08:16:07.436Z,100407.84
2022-10-12T08:18:35.650Z,100401.19
2022-10-12T08:21:05.514Z,100395.94
2022-10-12T08:23:33.611Z,100401.69
2022-10-12T08:26:01.696Z,100401.75
2022-10-12T08:28:31.287Z,100402.06
2022-10-12T08:30:59.671Z,100401.22
2022-10-12T08:33:30.387Z,100396.31
2022-10-12T08:35:58.452Z,100400.53
2022-10-12T08:38:26.613Z,100393.06
2022-10-12T08:40:59.105Z,100401.00
2022-10-12T08:43:37.577Z,100398.31
2022-10-12T08:46:06.002Z,100407.03
2022-10-12T08:48:37.104Z,100403.25
2022-10-12T08:51:09.386Z,100410.41
2022-10-12T08:53:52.629Z,100407.19
2022-10-12T08:56:21.354Z,100406.25
2022-10-12T08:58:52.180Z,100413.38
2022-10-12T09:01:26.966Z,100409.44
2022-10-12T09:04:10.083Z,100410.66
2022-10-12T09:06:42.049Z,100404.22
2022-10-12T09:09:24.733Z,100411.97
2022-10-12T09:12:05.233Z,100410.38
2022-10-12T09:14:36.991Z,100412.94
2022-10-12T09:17:23.379Z,100410.81
2022-10-12T09:19:57.360Z,100406.53
2022-10-12T09:22:25.514Z,100406.59
2022-10-12T09:24:53.575Z,100403.00
2022-10-12T09:27:22.974Z,100405.66
2022-10-12T09:29:57.640Z,100405.09
2022-10-12T09:32:37.048Z,100398.59
2022-10-12T09:35:05.830Z,100397.81
2022-10-12T09:37:34.813Z,100400.66
2022-10-12T09:40:03.994Z,100397.53
2022-10-12T09:42:33.506Z,100402.34
2022-10-12T09:45:14.365Z,100399.66
2022-10-12T09:47:42.709Z,100399.13
2022-10-12T09:50:10.818Z,100415.09
2022-10-12T09:52:44.251Z,100410.97
2022-10-12T09:55:24.841Z,100413.13
2022-10-12T09:57:55.686Z,100405.44
2022-10-12T10:00:28.134Z,100401.44
2022-10-12T10:02:56.987Z,100397.19
2022-10-12T10:05:27.558Z,100401.44
2022-10-12T10:08:15.973Z,100406.34
2022-10-12T10:10:49.228Z,100412.22
2022-10-12T10:13:17.407Z,100404.44
2022-10-12T10:15:50.183Z,100399.28
2022-10-12T10:18:23.520Z,100399.09
2022-10-12T10:20:53.119Z,100401.81
2022-10-12T10:23:27.083Z,100389.78
2022-10-12T10:25:58.340Z,100392.66
2022-10-12T10:28:30.604Z,100397.72
2022-10-12T10:31:03.037Z,100393.56
2022-10-12T10:33:33.784Z,100392.53
2022-10-12T10:36:05.305Z,100400.63
2022-10-12T10:38:46.831Z,100385.00
2022-10-12T10:41:18.423Z,100393.72
2022-10-12T10:43:48.560Z,100396.56
2022-10-12T10:46:26.560Z,100392.81
2022-10-12T10:48:58.747Z,100383.75
2022-10-12T10:51:43.028Z,100386.97
2022-10-12T10:54:16.992Z,100386.59
2022-10-12T10:56:47.730Z,100381.25
2022-10-12T10:59:28.990Z,100377.16
2022-10-12T11:02:03.075Z,100374.69
2022-10-12T11:04:36.258Z,100367.34
2022-10-12T11:07:11.721Z,100367.66
2022-10-12T11:09:42.864Z,100362.34
2022-10-12T11:12:17.797Z,100364.91
2022-10-12T11:14:47.490Z,100361.06
2022-10-12T11:17:21.404Z,100355.00
2022-10-12T11:19:53.230Z,100358.50
2022-10-12T11:22:25.004Z,100354.19
2022-10-12T11:24:56.084Z,100348.44
2022-10-12T11:27:28.688Z,100359.69
2022-10-12T11:30:09.442Z,100342.53
2022-10-12T11:32:42.839Z,100356.34
2022-10-12T11:35:17.304Z,100349.75
2022-10-12T11:37:56.345Z,100346.88
2022-10-12T11:40:55.482Z,100345.41
2022-10-12T11:43:19.661Z,100332.41
2022-10-12T11:45:49.565Z,100333.19
2022-10-12T11:48:26.990Z,100340.78
2022-10-12T11:50:59.973Z,100327.44
2022-10-12T11:53:36.447Z,100330.81
2022-10-12T11:56:09.707Z,100324.00
2022-10-12T11:58:59.938Z,100326.53
2022-10-12T12:01:46.585Z,100315.91
2022-10-12T12:04:44.363Z,100320.19
2022-10-12T12:07:44.988Z,100324.44
2022-10-12T12:10:44.437Z,100321.56
2022-10-12T12:13:22.772Z,100325.41
2022-10-12T12:16:31.882Z,100324.09
2022-10-12T12:19:37.902Z,100317.66
2022-10-12T12:22:20.226Z,100316.09
2022-10-12T12:25:00.292Z,100318.75
2022-10-12T12:27:34.867Z,100324.03
2022-10-12T12:30:07.116Z,100318.44
2022-10-12T12:32:45.104Z,100318.41
2022-10-12T12:35:23.805Z,100313.56
2022-10-12T12:38:03.051Z,100312.72
2022-10-12T12:40:31.289Z,100308.69
2022-10-12T12:43:22.401Z,100306.50
2022-10-12T12:45:58.002Z,100311.91
2022-10-12T12:49:00.001Z,100306.53
2022-10-12T12:51:38.051Z,100304.81
2022-10-12T12:54:08.228Z,100303.13
2022-10-12T12:56:42.460Z,100286.63
2022-10-12T12:59:23.334Z,100293.19
2022-10-12T13:02:06.988Z,100290.19
2022-10-12T13:04:51.812Z,100285.28
2022-10-12T13:07:37.069Z,100292.56
2022-10-12T13:10:14.775Z,100287.78
2022-10-12T13:13:03.800Z,100295.19
2022-10-12T13:15:45.077Z,100294.16
2022-10-12T13:18:47.169Z,100286.97
2022-10-12T13:21:19.330Z,100289.00
2022-10-12T13:23:50.743Z,100282.94
2022-10-12T13:26:24.539Z,100282.59
2022-10-12T13:28:54.056Z,100285.13
2022-10-12T13:31:26.667Z,100286.94
2022-10-12T13:34:00.173Z,100290.19
2022-10-12T13:36:30.262Z,100283.44
2022-10-12T13:39:09.426Z,100284.25
2022-10-12T13:41:38.376Z,100286.09
2022-10-12T13:44:07.356Z,100292.78
2022-10-12T13:46:38.479Z,100291.97
2022-10-12T13:49:17.443Z,100286.94
2022-10-12T13:51:47.824Z,100287.59
2022-10-12T13:54:23.053Z,100283.09
2022-10-12T13:56:55.915Z,100279.88
2022-10-12T13:59:25.957Z,100269.75
2022-10-12T14:01:57.289Z,100275.16
2022-10-12T14:04:29.847Z,100271.13
2022-10-12T14:07:04.131Z,100274.81
2022-10-12T14:09:40.467Z,100274.50
2022-10-12T14:12:10.104Z,100274.16
2022-10-12T14:14:39.214Z,100273.13
2022-10-12T14:17:09.098Z,100272.78
2022-10-12T14:19:45.100Z,100279.69
2022-10-12T14:22:20.535Z,100271.59
2022-10-12T14:24:50.816Z,100272.78
2022-10-12T14:27:24.892Z,100272.66
2022-10-12T14:29:55.419Z,100268.59
2022-10-12T14:32:42.191Z,100270.63
2022-10-12T14:35:22.042Z,100261.34
2022-10-12T14:37:51.838Z,100266.41
2022-10-12T14:40:40.996Z,100267.94
2022-10-12T14:43:24.346Z,100264.03
2022-10-12T14:45:53.357Z,100272.47
2022-10-12T14:48:23.772Z,100268.75
2022-10-12T14:50:52.221Z,100257.44
2022-10-12T14:53:22.536Z,100246.19
2022-10-12T14:55:54.847Z,100244.69
2022-10-12T14:58:24.469Z,100241.13
2022-10-12T15:00:52.613Z,100251.56
2022-10-12T15:03:21.897Z,100245.31
2022-10-12T15:05:52.355Z,100248.53
2022-10-12T15:08:20.439Z,100257.31
2022-10-12T15:10:53.008Z,100249.03
2022-10-12T15:13:21.094Z,100252.06
2022-10-12T15:15:52.223Z,100254.06
2022-10-12T15:18:21.788Z,100252.41
2022-10-12T15:20:50.194Z,100259.66
2022-10-12T15:23:19.837Z,100259.50
2022-10-12T15:25:54.902Z,100254.28
2022-10-12T15:28:24.669Z,100262.31
2022-10-12T15:31:15.763Z,100256.44
2022-10-12T15:33:45.812Z,100257.44
2022-10-12T15:36:14.959Z,100257.59
2022-10-12T15:38:43.719Z,100259.09
2022-10-12T15:41:17.684Z,100258.44
2022-10-12T15:43:46.137Z,100252.84
2022-10-12T15:46:14.376Z,100247.31
2022-10-12T15:48:44.046Z,100245.94
2022-10-12T15:51:22.811Z,100252.84
2022-10-12T15:53:51.619Z,100241.84
2022-10-12T15:56:21.419Z,100253.16
2022-10-12T15:58:49.863Z,100249.94
2022-10-12T16:01:19.431Z,100258.53
2022-10-12T16:03:48.172Z,100249.75
2022-10-12T16:06:16.542Z,100251.44
2022-10-12T16:08:44.703Z,100249.41
2022-10-12T16:11:14.425Z,100251.28
2022-10-12T16:13:51.079Z,100251.38
2022-10-12T16:16:22.465Z,100242.13
2022-10-12T16:18:51.512Z,100240.59
2022-10-12T16:21:19.631Z,100247.19
2022-10-12T16:23:47.849Z,100237.59
2022-10-12T16:26:16.562Z,100242.59
2022-10-12T16:28:46.062Z,100243.22
2022-10-12T16:31:17.943Z,100239.22
2022-10-12T16:33:46.517Z,100237.84
2022-10-12T16:36:16.377Z,100236.16
2022-10-12T16:38:44.948Z,100242.53
2022-10-12T16:41:14.754Z,100245.22
2022-10-12T16:43:44.540Z,100249.16
2022-10-12T16:46:14.067Z,100252.19
2022-10-12T16:48:42.144Z,100254.56
2022-10-12T16:51:11.389Z,100249.34
2022-10-12T16:53:42.263Z,100252.97
2022-10-12T16:56:10.706Z,100251.69
2022-10-12T16:58:38.898Z,100250.44
2022-10-12T17:01:11.245Z,100259.09
2022-10-12T17:03:41.155Z,100259.38
2022-10-12T17:06:10.031Z,100259.53
2022-10-12T17:08:39.339Z,100268.25
2022-10-12T17:11:09.094Z,100263.88
2022-10-12T17:13:41.522Z,100272.28
2022-10-12T17:16:25.148Z,100270.94
2022-10-12T17:18:59.162Z,100265.69
2022-10-12T17:21:28.051Z,100262.31
2022-10-12T17:23:57.534Z,100265.00
2022-10-12T17:26:26.649Z,100265.38
2022-10-12T17:28:55.252Z,100260.97
2022-10-12T17:31:24.302Z,100258.44
2022-10-12T17:33:52.878Z,100266.97
2022-10-12T17:36:27.979Z,100267.50
2022-10-12T17:38:58.633Z,100257.88
2022-10-12T17:41:27.857Z,100263.31
2022-10-12T17:43:56.979Z,100263.50
2022-10-12T17:46:25.316Z,100254.38
2022-10-12T17:48:53.898Z,100269.97
2022-10-12T17:51:25.128Z,100269.75
2022-10-12T17:53:53.914Z,100266.56
2022-10-12T17:56:22.403Z,100270.91
2022-10-12T17:58:55.769Z,100262.94
2022-10-12T18:01:25.681Z,100271.63
2022-10-12T18:03:55.489Z,100280.66
2022-10-12T18:06:27.632Z,100274.16
2022-10-12T18:08:58.014Z,100270.53
2022-10-12T18:11:27.809Z,100268.81
2022-10-12T18:13:57.725Z,100260.25
2022-10-12T18:16:27.994Z,100259.78
2022-10-12T18:18:58.017Z,100268.00
2022-10-12T18:21:29.511Z,100263.97
2022-10-12T18:23:58.027Z,100269.97
2022-10-12T18:26:28.151Z,100264.97
2022-10-12T18:28:57.939Z,100262.53
2022-10-12T18:31:28.136Z,100268.78
2022-10-12T18:33:58.851Z,100264.91
2022-10-12T18:36:29.416Z,100265.41
2022-10-12T18:39:02.024Z,100268.94
2022-10-12T18:41:31.726Z,100274.00
2022-10-12T18:44:02.478Z,100265.78
2022-10-12T18:46:33.416Z,100266.41
2022-10-12T18:49:05.213Z,100270.09
2022-10-12T18:51:39.998Z,100265.31
2022-10-12T18:54:13.296Z,100268.88
2022-10-12T18:56:43.114Z,100268.19
2022-10-12T18:59:13.571Z,100268.97
2022-10-12T19:01:44.288Z,100273.69
2022-10-12T19:04:13.947Z,100271.00
2022-10-12T19:06:53.257Z,100265.31
2022-10-12T19:09:26.109Z,100264.81
2022-10-12T19:11:55.699Z,100264.75
2022-10-12T19:14:25.898Z,100269.59
2022-10-12T19:16:56.239Z,100263.75
2022-10-12T19:19:25.658Z,100261.59
2022-10-12T19:21:57.004Z,100264.44
2022-10-12T19:24:28.922Z,100273.00
2022-10-12T19:27:00.284Z,100274.09
2022-10-12T19:29:30.178Z,100266.59
2022-10-12T19:32:00.545Z,100267.78
2022-10-12T19:34:30.108Z,100263.16
2022-10-12T19:37:01.305Z,100272.66
2022-10-12T19:39:32.681Z,100266.94
2022-10-12T19:42:02.102Z,100260.84
2022-10-12T19:44:31.578Z,100265.06
2022-10-12T19:47:00.516Z,100247.56
2022-10-12T19:49:34.382Z,100259.53
2022-10-12T19:52:07.140Z,100262.03
2022-10-12T19:54:36.724Z,100259.97
2022-10-12T19:57:06.661Z,100266.72
2022-10-12T19:59:35.781Z,100268.50
2022-10-12T20:02:04.833Z,100260.69
2022-10-12T20:04:34.403Z,100263.97
2022-10-12T20:07:03.633Z,100250.72
2022-10-12T20:09:34.642Z,100256.22
2022-10-12T20:12:03.168Z,100258.44
2022-10-12T20:14:31.491Z,100247.75
2022-10-12T20:16:59.936Z,100256.53
2022-10-12T20:19:28.255Z,100258.53
2022-10-12T20:21:56.454Z,100261.50
2022-10-12T20:24:24.700Z,100262.53
2022-10-12T20:26:54.236Z,100256.72
2022-10-12T20:29:22.271Z,100265.69
2022-10-12T20:31:50.423Z,100253.25
2022-10-12T20:34:18.518Z,100252.63
2022-10-12T20:36:46.617Z,100261.06
2022-10-12T20:39:14.685Z,100257.59
2022-10-12T20:41:42.785Z,100257.38
2022-10-12T20:44:12.460Z,100265.13
2022-10-12T20:46:40.571Z,100259.13
2022-10-12T20:49:08.661Z,100262.75
2022-10-12T20:51:40.040Z,100258.81
2022-10-12T20:54:09.250Z,100262.53
2022-10-12T20:56:41.788Z,100256.91
2022-10-12T20:59:10.616Z,100250.78
2022-10-12T21:01:40.374Z,100262.91
2022-10-12T21:04:10.189Z,100264.66
2022-10-12T21:06:39.245Z,100270.28
2022-10-12T21:09:07.402Z,100258.38
2022-10-12T21:11:35.637Z,100260.69
2022-10-12T21:14:03.724Z,100260.16
2022-10-12T21:16:33.393Z,100261.84
2022-10-12T21:19:02.782Z,100260.84
2022-10-12T21:21:30.918Z,100253.63
2022-10-12T21:24:00.453Z,100262.38
2022-10-12T21:26:30.756Z,100260.31
2022-10-12T21:29:00.574Z,100261.59
2022-10-12T21:31:32.631Z,100263.84
2022-10-12T21:34:03.351Z,100256.00
2022-10-12T21:36:32.882Z,100254.13
2022-10-12T21:39:00.993Z,100253.28
2022-10-12T21:41:30.088Z,100256.22
2022-10-12T21:43:59.120Z,100251.91
2022-10-12T21:46:29.073Z,100249.13
2022-10-12T21:48:57.552Z,100250.66
2022-10-12T21:51:27.630Z,100252.53
2022-10-12T21:53:55.775Z,100250.75
2022-10-12T21:56:25.200Z,100251.16
2022-10-12T21:58:54.842Z,100245.00
2022-10-12T22:01:24.583Z,100242.31
2022-10-12T22:03:54.430Z,100248.72
2022-10-12T22:06:23.774Z,100254.78
2022-10-12T22:08:55.990Z,100253.50
2022-10-12T22:11:24.804Z,100252.78
2022-10-12T22:13:53.056Z,100250.41
2022-10-12T22:16:21.246Z,100256.16
2022-10-12T22:18:49.300Z,100249.50
2022-10-12T22:21:19.271Z,100258.50
2022-10-12T22:23:47.762Z,100256.16
2022-10-12T22:26:18.847Z,100254.88
2022-10-12T22:28:54.397Z,100253.25
2022-10-12T22:31:24.735Z,100249.13
2022-10-12T22:33:53.152Z,100256.88
2022-10-12T22:36:21.478Z,100248.28
2022-10-12T22:38:49.511Z,100246.94
2022-10-12T22:41:20.544Z,100252.53
2022-10-12T22:43:49.337Z,100242.94
2022-10-12T22:46:17.822Z,100243.63
2022-10-12T22:48:45.912Z,100241.44
2022-10-12T22:51:16.755Z,100246.78
2022-10-12T22:53:44.877Z,100245.75
2022-10-12T22:56:15.992Z,100248.28
2022-10-12T22:58:48.030Z,100242.69
2022-10-12T23:01:18.214Z,100235.41
2022-10-12T23:03:46.351Z,100239.69
2022-10-12T23:06:16.244Z,100233.69
2022-10-12T23:08:44.628Z,100236.44
2022-10-12T23:11:14.349Z,100236.50
2022-10-12T23:13:43.619Z,100233.41
2022-10-12T23:16:14.812Z,100234.50
2022-10-12T23:18:43.097Z,100237.19
2022-10-12T23:21:12.928Z,100236.94
2022-10-12T23:23:42.097Z,100244.50
2022-10-12T23:26:12.548Z,100243.66
2022-10-12T23:28:41.021Z,100246.81
2022-10-12T23:31:20.194Z,100237.59
2022-10-12T23:33:48.671Z,100234.91
2022-10-12T23:36:18.551Z,100233.31
2022-10-12T23:38:46.831Z,100242.06
2022-10-12T23:41:15.251Z,100242.47
2022-10-12T23:43:43.518Z,100233.88
2022-10-12T23:46:12.383Z,100232.03
2022-10-12T23:48:42.088Z,100226.59
2022-10-12T23:51:10.454Z,100237.19
2022-10-12T23:53:39.368Z,100229.19
2022-10-12T23:56:07.936Z,100237.25
2022-10-12T23:58:36.270Z,100235.03
